createdAt,value
2023-01-17T00:02:10.484Z,86.47
2023-01-17T00:04:55.849Z,86.77
2023-01-17T00:07:42.859Z,86.90
2023-01-17T00:10:12.576Z,86.62
2023-01-17T00:12:39.345Z,86.79
2023-01-17T00:15:07.172Z,86.83
2023-01-17T00:17:33.826Z,87.01
2023-01-17T00:20:20.236Z,86.99
2023-01-17T00:23:05.826Z,87.00
2023-01-17T00:25:57.436Z,87.02
2023-01-17T00:28:24.908Z,87.15
2023-01-17T00:30:51.984Z,87.21
2023-01-17T00:33:19.591Z,87.00
2023-01-17T00:35:46.510Z,87.24
2023-01-17T00:38:16.002Z,87.10
2023-01-17T00:40:44.165Z,87.19
2023-01-17T00:43:31.939Z,87.42
2023-01-17T00:46:17.400Z,87.60
2023-01-17T00:49:02.753Z,88.05
2023-01-17T00:51:49.146Z,87.71
2023-01-17T00:54:34.485Z,87.72
2023-01-17T00:57:20.061Z,87.69
2023-01-17T01:00:05.872Z,87.65
2023-01-17T01:02:52.109Z,87.71
2023-01-17T01:05:38.555Z,87.81
2023-01-17T01:08:44.991Z,87.51
2023-01-17T01:11:33.861Z,87.57
2023-01-17T01:14:20.219Z,87.67
2023-01-17T01:17:05.482Z,87.69
2023-01-17T01:19:50.733Z,87.74
2023-01-17T01:22:36.021Z,87.70
2023-01-17T01:25:21.266Z,87.76
2023-01-17T01:28:06.530Z,87.68
2023-01-17T01:30:51.856Z,87.84
2023-01-17T01:33:18.663Z,87.94
2023-01-17T01:35:53.982Z,87.82
2023-01-17T01:38:26.019Z,87.94
2023-01-17T01:40:55.269Z,87.96
2023-01-17T01:43:41.955Z,87.98
2023-01-17T01:46:11.293Z,88.38
2023-01-17T01:48:47.778Z,88.25
2023-01-17T01:51:19.799Z,88.24
2023-01-17T01:53:51.094Z,88.25
2023-01-17T01:56:19.904Z,88.24
2023-01-17T01:58:50.316Z,88.38
2023-01-17T02:01:17.872Z,88.34
2023-01-17T02:03:46.305Z,88.32
2023-01-17T02:06:26.881Z,88.54
2023-01-17T02:08:53.725Z,88.53
2023-01-17T02:11:21.518Z,88.67
2023-01-17T02:13:48.156Z,88.58
2023-01-17T02:16:29.992Z,88.67
2023-01-17T02:19:32.109Z,88.59
2023-01-17T02:22:10.947Z,88.78
2023-01-17T02:24:57.696Z,88.63
2023-01-17T02:27:31.187Z,88.74
2023-01-17T02:30:16.605Z,88.73
2023-01-17T02:32:56.471Z,88.72
2023-01-17T02:35:34.087Z,89.31
2023-01-17T02:38:31.158Z,88.99
2023-01-17T02:41:03.555Z,88.98
2023-01-17T02:43:32.647Z,88.88
2023-01-17T02:45:59.480Z,89.24
2023-01-17T02:48:29.412Z,88.95
2023-01-17T02:51:17.750Z,89.50
2023-01-17T02:53:51.303Z,89.34
2023-01-17T02:56:32.598Z,89.03
2023-01-17T02:59:05.359Z,89.02
2023-01-17T03:01:43.367Z,90.49
2023-01-17T03:04:18.474Z,89.31
2023-01-17T03:06:52.452Z,89.83
2023-01-17T03:09:20.341Z,89.87
2023-01-17T03:11:47.266Z,89.85
2023-01-17T03:14:13.974Z,90.36
2023-01-17T03:16:40.787Z,90.42
2023-01-17T03:19:09.718Z,90.67
2023-01-17T03:21:36.411Z,90.34
2023-01-17T03:24:03.134Z,90.88
2023-01-17T03:26:30.125Z,90.56
2023-01-17T03:28:56.754Z,90.64
2023-01-17T03:31:23.595Z,90.56
2023-01-17T03:33:50.239Z,90.42
2023-01-17T03:36:16.890Z,90.61
2023-01-17T03:38:43.817Z,90.67
2023-01-17T03:41:10.462Z,90.32
2023-01-17T03:43:37.114Z,90.53
2023-01-17T03:46:17.384Z,90.14
2023-01-17T03:48:44.012Z,90.75
2023-01-17T03:51:10.678Z,90.73
2023-01-17T03:53:37.306Z,90.80
2023-01-17T03:56:04.144Z,90.91
2023-01-17T03:58:30.767Z,91.32
2023-01-17T04:00:57.493Z,91.10
2023-01-17T04:03:24.201Z,90.97
2023-01-17T04:05:50.830Z,91.29
2023-01-17T04:08:17.610Z,90.87
2023-01-17T04:10:44.223Z,91.49
2023-01-17T04:13:10.867Z,90.88
2023-01-17T04:15:37.486Z,91.00
2023-01-17T04:18:05.057Z,91.80
2023-01-17T04:20:37.455Z,91.70
2023-01-17T04:23:04.816Z,91.64
2023-01-17T04:25:31.478Z,91.45
2023-01-17T04:27:59.703Z,91.79
2023-01-17T04:30:28.118Z,91.59
2023-01-17T04:32:55.801Z,91.91
2023-01-17T04:35:22.469Z,92.18
2023-01-17T04:37:49.273Z,91.69
2023-01-17T04:40:16.211Z,92.02
2023-01-17T04:42:45.644Z,91.73
2023-01-17T04:45:12.752Z,91.88
2023-01-17T04:47:39.429Z,91.39
2023-01-17T04:50:06.840Z,91.56
2023-01-17T04:52:33.463Z,91.66
2023-01-17T04:55:00.091Z,91.64
2023-01-17T04:57:27.211Z,92.11
2023-01-17T04:59:53.830Z,92.32
2023-01-17T05:02:20.711Z,92.23
2023-01-17T05:04:47.540Z,92.16
2023-01-17T05:07:14.188Z,92.30
2023-01-17T05:09:40.814Z,91.92
2023-01-17T05:12:07.498Z,91.90
2023-01-17T05:14:34.428Z,91.81
2023-01-17T05:17:03.008Z,91.72
2023-01-17T05:19:29.892Z,91.79
2023-01-17T05:22:03.567Z,91.82
2023-01-17T05:24:31.099Z,91.60
2023-01-17T05:27:03.755Z,91.80
2023-01-17T05:29:30.710Z,91.71
2023-01-17T05:31:57.750Z,91.86
2023-01-17T05:34:25.143Z,91.45
2023-01-17T05:36:51.866Z,91.47
2023-01-17T05:39:18.496Z,91.45
2023-01-17T05:41:45.714Z,91.64
2023-01-17T05:44:12.500Z,91.37
2023-01-17T05:46:39.194Z,91.26
2023-01-17T05:49:07.127Z,91.52
2023-01-17T05:51:37.564Z,91.81
2023-01-17T05:54:05.379Z,91.44
2023-01-17T05:56:32.348Z,91.61
2023-01-17T05:58:59.006Z,91.67
2023-01-17T06:01:25.851Z,91.41
2023-01-17T06:03:52.536Z,91.37
2023-01-17T06:06:19.221Z,91.16
2023-01-17T06:08:45.825Z,91.18
2023-01-17T06:11:12.454Z,91.25
2023-01-17T06:13:39.080Z,90.48
2023-01-17T06:16:06.106Z,90.79
2023-01-17T06:18:32.977Z,91.06
2023-01-17T06:20:59.614Z,90.91
2023-01-17T06:23:26.247Z,90.58
2023-01-17T06:25:52.905Z,90.72
2023-01-17T06:28:21.885Z,90.59
2023-01-17T06:30:48.982Z,90.55
2023-01-17T06:33:15.864Z,90.04
2023-01-17T06:35:52.477Z,90.36
2023-01-17T06:38:19.625Z,90.18
2023-01-17T06:40:48.075Z,90.14
2023-01-17T06:43:16.644Z,90.23
2023-01-17T06:45:43.284Z,89.97
2023-01-17T06:48:09.924Z,90.13
2023-01-17T06:50:36.779Z,90.33
2023-01-17T06:53:05.700Z,90.96
2023-01-17T06:55:33.964Z,90.88
2023-01-17T06:58:02.393Z,91.19
2023-01-17T07:00:30.614Z,90.43
2023-01-17T07:02:57.342Z,90.71
2023-01-17T07:05:23.831Z,91.10
2023-01-17T07:07:50.317Z,91.24
2023-01-17T07:10:16.945Z,91.09
2023-01-17T07:12:43.387Z,90.96
2023-01-17T07:15:10.621Z,91.28
2023-01-17T07:17:37.325Z,91.06
2023-01-17T07:20:04.176Z,91.28
2023-01-17T07:22:30.745Z,91.14
2023-01-17T07:24:58.595Z,91.41
2023-01-17T07:27:27.618Z,91.47
2023-01-17T07:29:54.375Z,91.62
2023-01-17T07:32:20.982Z,91.07
2023-01-17T07:34:47.459Z,91.14
2023-01-17T07:37:15.290Z,91.07
2023-01-17T07:39:42.055Z,90.82
2023-01-17T07:42:09.095Z,91.52
2023-01-17T07:44:41.954Z,91.50
2023-01-17T07:47:08.390Z,91.33
2023-01-17T07:49:35.944Z,90.84
2023-01-17T07:52:02.640Z,91.21
2023-01-17T07:54:29.075Z,90.71
2023-01-17T07:56:55.903Z,90.86
2023-01-17T07:59:22.938Z,90.72
2023-01-17T08:01:49.453Z,90.83
2023-01-17T08:04:16.027Z,90.47
2023-01-17T08:06:47.338Z,90.69
2023-01-17T08:09:14.025Z,90.09
2023-01-17T08:11:40.469Z,90.53
2023-01-17T08:14:06.933Z,90.36
2023-01-17T08:16:33.429Z,90.60
2023-01-17T08:18:59.887Z,90.90
2023-01-17T08:21:27.890Z,90.41
2023-01-17T08:23:54.351Z,90.99
2023-01-17T08:26:22.148Z,90.62
2023-01-17T08:28:57.762Z,90.83
2023-01-17T08:31:24.535Z,90.92
2023-01-17T08:33:51.094Z,91.80
2023-01-17T08:36:18.040Z,91.38
2023-01-17T08:38:45.319Z,91.44
2023-01-17T08:41:12.881Z,91.11
2023-01-17T08:43:39.365Z,91.50
2023-01-17T08:46:06.264Z,91.57
2023-01-17T08:48:32.826Z,91.46
2023-01-17T08:51:03.090Z,91.49
2023-01-17T08:53:29.867Z,90.75
2023-01-17T08:56:01.885Z,91.03
2023-01-17T08:58:30.798Z,91.38
2023-01-17T09:01:05.789Z,90.59
2023-01-17T09:03:35.066Z,90.67
2023-01-17T09:06:03.246Z,91.06
2023-01-17T09:08:30.594Z,90.49
2023-01-17T09:10:57.522Z,90.85
2023-01-17T09:13:24.385Z,91.01
2023-01-17T09:15:55.844Z,90.36
2023-01-17T09:18:22.472Z,90.54
2023-01-17T09:20:49.091Z,90.77
2023-01-17T09:23:15.749Z,90.86
2023-01-17T09:25:44.689Z,90.83
2023-01-17T09:28:11.356Z,90.73
2023-01-17T09:30:38.017Z,90.23
2023-01-17T09:33:04.631Z,90.26
2023-01-17T09:35:31.262Z,90.69
2023-01-17T09:37:58.273Z,90.83
2023-01-17T09:40:25.500Z,90.40
2023-01-17T09:42:59.795Z,90.09
2023-01-17T09:45:31.950Z,89.86
2023-01-17T09:48:01.137Z,90.13
2023-01-17T09:50:32.908Z,89.79
2023-01-17T09:53:02.375Z,89.65
2023-01-17T09:55:37.127Z,89.83
2023-01-17T09:58:19.370Z,89.52
2023-01-17T10:01:17.359Z,89.60
2023-01-17T10:04:21.403Z,89.71
2023-01-17T10:07:12.576Z,89.20
2023-01-17T10:10:10.932Z,89.09
2023-01-17T10:13:03.853Z,89.73
2023-01-17T10:16:04.261Z,89.76
2023-01-17T10:18:56.122Z,89.21
2023-01-17T10:21:50.763Z,89.55
2023-01-17T10:25:03.884Z,89.31
2023-01-17T10:27:35.032Z,88.99
2023-01-17T10:30:12.379Z,89.14
2023-01-17T10:32:46.323Z,89.17
2023-01-17T10:35:27.180Z,89.07
2023-01-17T10:37:57.004Z,88.25
2023-01-17T10:40:51.080Z,88.16
2023-01-17T10:43:30.637Z,87.87
2023-01-17T10:45:57.464Z,88.03
2023-01-17T10:48:35.406Z,87.30
2023-01-17T10:51:25.916Z,87.77
2023-01-17T10:54:23.024Z,86.61
2023-01-17T10:56:49.781Z,86.88
2023-01-17T10:59:34.829Z,87.24
2023-01-17T11:02:07.293Z,86.66
2023-01-17T11:04:37.373Z,85.91
2023-01-17T11:07:14.708Z,87.06
2023-01-17T11:09:45.008Z,86.81
2023-01-17T11:12:22.710Z,86.34
2023-01-17T11:15:02.476Z,85.97
2023-01-17T11:17:30.734Z,85.65
2023-01-17T11:20:26.362Z,85.09
2023-01-17T11:23:17.674Z,85.16
2023-01-17T11:25:58.096Z,84.86
2023-01-17T11:28:30.202Z,84.95
2023-01-17T11:30:58.370Z,84.72
2023-01-17T11:33:44.898Z,84.36
2023-01-17T11:36:29.063Z,82.95
2023-01-17T11:39:14.181Z,83.57
2023-01-17T11:41:41.380Z,84.16
2023-01-17T11:44:23.134Z,83.57
2023-01-17T11:47:08.794Z,83.19
2023-01-17T11:49:35.565Z,82.51
2023-01-17T11:52:09.221Z,83.30
2023-01-17T11:54:42.595Z,82.62
2023-01-17T11:57:33.191Z,83.19
2023-01-17T12:00:19.548Z,82.45
2023-01-17T12:03:10.670Z,82.71
2023-01-17T12:05:41.599Z,82.23
2023-01-17T12:08:39.877Z,81.98
2023-01-17T12:11:28.069Z,82.53
2023-01-17T12:14:25.941Z,83.17
2023-01-17T12:16:55.884Z,82.56
2023-01-17T12:19:41.393Z,82.69
2023-01-17T12:22:41.950Z,80.76
2023-01-17T12:25:26.830Z,79.51
2023-01-17T12:28:25.698Z,79.23
2023-01-17T12:31:18.273Z,80.22
2023-01-17T12:34:08.108Z,80.55
2023-01-17T12:37:10.933Z,79.78
2023-01-17T12:39:43.418Z,80.43
2023-01-17T12:42:20.570Z,80.56
2023-01-17T12:45:00.247Z,80.63
2023-01-17T12:47:26.951Z,81.16
2023-01-17T12:50:09.338Z,80.86
2023-01-17T12:52:52.235Z,80.49
2023-01-17T12:55:32.401Z,80.49
2023-01-17T12:58:02.245Z,80.78
2023-01-17T13:00:32.890Z,81.29
2023-01-17T13:03:20.903Z,81.33
2023-01-17T13:05:48.686Z,81.50
2023-01-17T13:08:20.518Z,80.73
2023-01-17T13:10:59.107Z,81.02
2023-01-17T13:13:28.122Z,81.31
2023-01-17T13:16:15.976Z,81.42
2023-01-17T13:18:47.963Z,80.34
2023-01-17T13:21:30.298Z,80.65
2023-01-17T13:23:58.936Z,80.62
2023-01-17T13:26:56.080Z,81.08
2023-01-17T13:29:52.158Z,81.56
2023-01-17T13:32:28.625Z,80.03
2023-01-17T13:35:10.709Z,79.29
2023-01-17T13:37:54.600Z,80.18
2023-01-17T13:40:34.971Z,79.48
2023-01-17T13:43:11.911Z,79.24
2023-01-17T13:45:38.934Z,79.52
2023-01-17T13:48:11.685Z,79.65
2023-01-17T13:50:38.238Z,79.37
2023-01-17T13:53:43.942Z,79.79
2023-01-17T13:56:34.071Z,78.85
2023-01-17T13:59:03.173Z,79.80
2023-01-17T14:01:34.612Z,79.72
2023-01-17T14:04:04.109Z,78.22
2023-01-17T14:06:46.555Z,78.99
2023-01-17T14:09:25.091Z,78.30
2023-01-17T14:11:51.954Z,77.56
2023-01-17T14:14:43.573Z,77.81
2023-01-17T14:17:15.365Z,78.93
2023-01-17T14:19:45.974Z,77.79
2023-01-17T14:22:18.784Z,78.17
2023-01-17T14:25:02.040Z,78.30
2023-01-17T14:27:34.496Z,77.79
2023-01-17T14:30:02.757Z,76.99
2023-01-17T14:32:32.816Z,77.74
2023-01-17T14:34:59.717Z,78.09
2023-01-17T14:37:44.015Z,78.51
2023-01-17T14:40:26.334Z,78.68
2023-01-17T14:42:58.973Z,78.28
2023-01-17T14:45:31.397Z,78.31
2023-01-17T14:48:02.009Z,78.73
2023-01-17T14:50:49.982Z,79.29
2023-01-17T14:53:20.666Z,78.53
2023-01-17T14:55:47.220Z,79.32
2023-01-17T14:58:29.258Z,79.21
2023-01-17T15:01:02.283Z,79.38
2023-01-17T15:03:31.789Z,78.41
2023-01-17T15:06:11.208Z,79.29
2023-01-17T15:08:39.149Z,79.84
2023-01-17T15:11:09.373Z,79.79
2023-01-17T15:13:45.240Z,79.91
2023-01-17T15:16:29.931Z,80.46
2023-01-17T15:18:57.243Z,81.12
2023-01-17T15:21:27.885Z,81.54
2023-01-17T15:23:57.743Z,81.09
2023-01-17T15:26:27.348Z,81.17
2023-01-17T15:29:03.129Z,81.20
2023-01-17T15:31:42.643Z,81.33
2023-01-17T15:34:19.167Z,81.40
2023-01-17T15:36:48.799Z,82.16
2023-01-17T15:39:24.699Z,81.90
2023-01-17T15:41:53.366Z,82.28
2023-01-17T15:44:49.313Z,82.89
2023-01-17T15:47:34.286Z,82.67
2023-01-17T15:50:28.421Z,82.72
2023-01-17T15:52:58.818Z,82.24
2023-01-17T15:55:31.074Z,82.78
2023-01-17T15:57:57.921Z,82.71
2023-01-17T16:00:32.472Z,83.16
2023-01-17T16:02:59.548Z,82.74
2023-01-17T16:05:25.988Z,83.10
2023-01-17T16:07:56.312Z,83.23
2023-01-17T16:10:28.613Z,83.31
2023-01-17T16:12:59.489Z,83.32
2023-01-17T16:15:27.341Z,82.89
2023-01-17T16:18:02.699Z,83.50
2023-01-17T16:20:35.413Z,83.31
2023-01-17T16:23:02.532Z,83.11
2023-01-17T16:25:32.896Z,83.13
2023-01-17T16:27:59.983Z,83.14
2023-01-17T16:30:27.276Z,83.70
2023-01-17T16:32:55.248Z,83.55
2023-01-17T16:35:24.266Z,83.41
2023-01-17T16:37:55.828Z,83.82
2023-01-17T16:40:28.343Z,83.87
2023-01-17T16:42:59.044Z,83.46
2023-01-17T16:45:25.692Z,83.26
2023-01-17T16:47:53.896Z,83.21
2023-01-17T16:50:23.753Z,84.09
2023-01-17T16:52:51.851Z,83.75
2023-01-17T16:55:21.968Z,83.70
2023-01-17T16:57:50.126Z,83.72
2023-01-17T17:00:17.325Z,84.21
2023-01-17T17:02:44.246Z,83.95
2023-01-17T17:05:11.301Z,83.67
2023-01-17T17:07:42.668Z,84.00
2023-01-17T17:10:10.323Z,84.31
2023-01-17T17:12:36.820Z,84.43
2023-01-17T17:15:03.477Z,84.11
2023-01-17T17:17:29.963Z,84.44
2023-01-17T17:19:56.419Z,83.88
2023-01-17T17:22:22.857Z,84.81
2023-01-17T17:24:49.388Z,84.12
2023-01-17T17:27:15.818Z,84.36
2023-01-17T17:29:42.475Z,84.75
2023-01-17T17:32:11.456Z,84.18
2023-01-17T17:34:38.602Z,84.47
2023-01-17T17:37:05.235Z,85.00
2023-01-17T17:39:32.195Z,84.35
2023-01-17T17:41:58.853Z,84.81
2023-01-17T17:44:25.705Z,84.74
2023-01-17T17:46:52.361Z,84.21
2023-01-17T17:49:20.345Z,84.83
2023-01-17T17:51:47.924Z,84.36
2023-01-17T17:54:15.876Z,84.45
2023-01-17T17:56:47.254Z,84.81
2023-01-17T17:59:18.134Z,84.52
2023-01-17T18:01:46.003Z,84.48
2023-01-17T18:04:12.714Z,84.47
2023-01-17T18:06:39.916Z,84.31
2023-01-17T18:09:08.865Z,84.83
2023-01-17T18:11:37.111Z,85.23
2023-01-17T18:14:05.464Z,84.86
2023-01-17T18:16:41.314Z,84.90
2023-01-17T18:19:13.399Z,84.40
2023-01-17T18:21:40.300Z,84.73
2023-01-17T18:24:10.213Z,84.85
2023-01-17T18:26:36.953Z,84.96
2023-01-17T18:29:05.302Z,84.86
2023-01-17T18:31:32.112Z,84.84
2023-01-17T18:34:02.994Z,84.68
2023-01-17T18:36:29.779Z,84.79
2023-01-17T18:38:56.711Z,84.58
2023-01-17T18:41:28.783Z,85.05
2023-01-17T18:43:58.729Z,84.84
2023-01-17T18:46:25.953Z,85.25
2023-01-17T18:48:55.633Z,84.72
2023-01-17T18:51:22.515Z,84.88
2023-01-17T18:53:49.387Z,85.18
2023-01-17T18:56:18.723Z,85.36
2023-01-17T18:58:46.914Z,85.55
2023-01-17T19:01:25.740Z,85.39
2023-01-17T19:03:59.071Z,85.63
2023-01-17T19:06:39.712Z,85.87
2023-01-17T19:09:07.855Z,85.28
2023-01-17T19:11:35.108Z,85.42
2023-01-17T19:14:03.037Z,85.47
2023-01-17T19:16:31.874Z,85.31
2023-01-17T19:19:03.011Z,85.25
2023-01-17T19:21:30.177Z,85.71
2023-01-17T19:23:57.410Z,85.29
2023-01-17T19:26:24.977Z,85.91
2023-01-17T19:28:51.898Z,85.33
2023-01-17T19:31:23.921Z,85.39
2023-01-17T19:33:53.436Z,85.38
2023-01-17T19:36:23.325Z,85.50
2023-01-17T19:39:03.428Z,85.59
2023-01-17T19:41:31.528Z,85.48
2023-01-17T19:44:05.732Z,85.79
2023-01-17T19:46:33.120Z,85.80
2023-01-17T19:49:00.028Z,85.74
2023-01-17T19:51:26.827Z,85.80
2023-01-17T19:53:54.769Z,85.65
2023-01-17T19:56:24.072Z,85.55
2023-01-17T19:58:51.935Z,85.49
2023-01-17T20:01:25.038Z,85.30
2023-01-17T20:03:51.987Z,85.54
2023-01-17T20:06:24.156Z,85.65
2023-01-17T20:08:51.009Z,85.43
2023-01-17T20:11:20.377Z,85.37
2023-01-17T20:13:48.433Z,85.66
2023-01-17T20:16:17.744Z,85.51
2023-01-17T20:18:45.530Z,85.68
2023-01-17T20:21:17.022Z,85.42
2023-01-17T20:23:46.940Z,85.78
2023-01-17T20:26:15.759Z,86.01
2023-01-17T20:28:44.928Z,85.80
2023-01-17T20:31:20.460Z,85.72
2023-01-17T20:33:50.124Z,85.90
2023-01-17T20:36:18.506Z,85.07
2023-01-17T20:38:45.767Z,85.48
2023-01-17T20:41:13.776Z,85.82
2023-01-17T20:43:42.012Z,85.60
2023-01-17T20:46:09.764Z,85.46
2023-01-17T20:48:37.641Z,85.61
2023-01-17T20:51:10.609Z,85.66
2023-01-17T20:53:39.103Z,85.65
2023-01-17T20:56:07.885Z,86.07
2023-01-17T20:58:35.030Z,85.48
2023-01-17T21:01:02.125Z,85.78
2023-01-17T21:03:29.206Z,85.73
2023-01-17T21:06:06.201Z,85.83
2023-01-17T21:08:35.057Z,85.72
2023-01-17T21:11:01.867Z,85.89
2023-01-17T21:13:28.982Z,85.86
2023-01-17T21:15:55.724Z,85.37
2023-01-17T21:18:24.714Z,85.43
2023-01-17T21:20:51.906Z,85.55
2023-01-17T21:23:19.955Z,85.54
2023-01-17T21:25:49.284Z,85.94
2023-01-17T21:28:15.989Z,85.45
2023-01-17T21:30:42.645Z,85.48
2023-01-17T21:33:09.365Z,85.88
2023-01-17T21:35:36.047Z,85.99
2023-01-17T21:38:02.750Z,85.80
2023-01-17T21:40:29.424Z,85.69
2023-01-17T21:42:56.070Z,86.07
2023-01-17T21:45:26.132Z,86.80
2023-01-17T21:47:52.688Z,86.28
2023-01-17T21:50:32.745Z,86.27
2023-01-17T21:52:59.835Z,86.54
2023-01-17T21:55:45.259Z,86.09
2023-01-17T21:58:35.644Z,86.69
2023-01-17T22:01:15.730Z,86.31
2023-01-17T22:03:43.510Z,86.68
2023-01-17T22:06:10.422Z,86.61
2023-01-17T22:08:37.716Z,86.92
2023-01-17T22:11:10.851Z,87.07
2023-01-17T22:13:40.676Z,86.64
2023-01-17T22:16:10.528Z,86.79
2023-01-17T22:18:38.891Z,87.48
2023-01-17T22:21:08.145Z,87.23
2023-01-17T22:23:36.278Z,87.42
2023-01-17T22:26:05.120Z,87.17
2023-01-17T22:28:32.766Z,87.02
2023-01-17T22:31:08.771Z,86.87
2023-01-17T22:33:36.590Z,87.56
2023-01-17T22:36:03.778Z,86.71
2023-01-17T22:38:31.362Z,86.72
2023-01-17T22:41:09.065Z,87.09
2023-01-17T22:43:44.988Z,86.74
2023-01-17T22:46:18.052Z,87.02
2023-01-17T22:48:45.383Z,87.27
2023-01-17T22:51:14.993Z,86.60
2023-01-17T22:53:45.762Z,86.62
2023-01-17T22:56:16.270Z,86.44
2023-01-17T22:58:44.811Z,86.30
2023-01-17T23:01:14.192Z,86.89
2023-01-17T23:03:41.802Z,86.58
2023-01-17T23:06:13.645Z,86.22
2023-01-17T23:08:42.715Z,86.80
2023-01-17T23:11:46.078Z,86.57
2023-01-17T23:14:17.105Z,86.00
2023-01-17T23:17:22.846Z,86.01
2023-01-17T23:19:52.347Z,85.97
2023-01-17T23:22:20.294Z,86.06
2023-01-17T23:24:58.776Z,86.44
2023-01-17T23:27:53.426Z,86.92
2023-01-17T23:30:29.284Z,87.25
2023-01-17T23:32:59.924Z,87.74
2023-01-17T23:35:35.537Z,87.26
2023-01-17T23:38:21.771Z,86.96
2023-01-17T23:41:08.815Z,86.50
2023-01-17T23:43:36.362Z,87.07
2023-01-17T23:46:05.024Z,86.54
2023-01-17T23:48:31.726Z,86.34
2023-01-17T23:51:00.821Z,86.77
2023-01-17T23:53:27.769Z,86.52
2023-01-17T23:55:56.408Z,86.91
2023-01-17T23:58:26.584Z,86.54
